Time;durP1;ratioP1;P1;durP2;ratioP2;P2;SDS_P1;SDS_P2;PMS_P1;PMS_P2;Temp;Humidity;BMP_temperature;BMP_pressure;BME280_temperature;BME280_humidity;BME280_pressure;Samples;Min_cycle;Max_cycle;Signal;HPM_P1;HPM_P2
2022/05/19 00:01:09;;;;;;;17.53;16.20;;;;;;;18.88;92.33;101841.34;5031438;28;20468;-44
2022/05/19 00:03:38;;;;;;;21.27;19.40;;;;;;;18.92;92.62;101852.56;5032203;28;20477;-44
2022/05/19 00:06:08;;;;;;;20.87;19.07;;;;;;;18.90;92.66;101851.97;5031851;28;20455;-44
2022/05/19 00:08:36;;;;;;;20.43;18.83;;;;;;;18.90;92.75;101850.09;5031880;28;20442;-46
2022/05/19 00:11:06;;;;;;;22.13;20.10;;;;;;;18.89;92.99;101856.53;5031359;28;20811;-45
2022/05/19 00:13:34;;;;;;;20.33;18.83;;;;;;;18.90;93.33;101858.19;5031989;28;20432;-44
2022/05/19 00:16:05;;;;;;;23.60;21.73;;;;;;;18.90;93.08;101871.72;5031814;28;20463;-46
2022/05/19 00:18:33;;;;;;;22.23;20.63;;;;;;;18.90;92.93;101868.19;5031701;28;20434;-45
2022/05/19 00:21:00;;;;;;;21.10;19.50;;;;;;;18.87;92.60;101868.63;5031018;28;20463;-44
2022/05/19 00:23:28;;;;;;;22.87;21.07;;;;;;;18.84;92.35;101861.78;5031803;28;21112;-44
2022/05/19 00:25:56;;;;;;;24.30;22.30;;;;;;;18.83;92.63;101864.69;5031974;28;20456;-46
2022/05/19 00:28:23;;;;;;;24.13;22.00;;;;;;;18.79;92.42;101854.34;5031812;28;20498;-45
2022/05/19 00:30:51;;;;;;;22.73;20.87;;;;;;;18.76;92.24;101862.06;5031156;28;20806;-44
2022/05/19 00:33:20;;;;;;;23.60;21.70;;;;;;;18.73;92.37;101857.09;5031734;28;21116;-46
2022/05/19 00:35:47;;;;;;;24.83;22.93;;;;;;;18.69;92.32;101859.44;5031724;28;20459;-44
2022/05/19 00:38:15;;;;;;;24.80;22.90;;;;;;;18.65;92.72;101857.41;5032050;28;20431;-48
2022/05/19 00:40:48;;;;;;;23.80;22.00;;;;;;;18.60;92.48;101855.38;5035210;28;20521;-45
2022/05/19 00:43:16;;;;;;;25.50;23.50;;;;;;;18.55;92.21;101855.19;5035778;28;20428;-45
2022/05/19 00:45:51;;;;;;;24.67;22.53;;;;;;;18.51;92.43;101853.19;5035407;28;20471;-45
2022/05/19 00:48:24;;;;;;;27.77;25.47;;;;;;;18.45;92.60;101851.34;5035517;28;21059;-49
2022/05/19 00:50:56;;;;;;;28.10;25.90;;;;;;;18.40;92.49;101848.47;5035197;28;20470;-49
2022/05/19 00:53:35;;;;;;;30.13;27.37;;;;;;;18.34;92.57;101850.16;5035618;28;20435;-44
2022/05/19 00:56:09;;;;;;;33.33;30.40;;;;;;;18.27;92.63;101844.00;5035323;28;20462;-44
2022/05/19 00:58:41;;;;;;;30.57;27.87;;;;;;;18.21;92.77;101851.13;5035541;28;20431;-47
2022/05/19 01:01:08;;;;;;;32.50;29.60;;;;;;;18.15;92.78;101849.31;5034628;28;20459;-47
2022/05/19 01:03:43;;;;;;;32.87;30.03;;;;;;;18.09;92.89;101854.75;5035200;28;20436;-48
2022/05/19 01:06:14;;;;;;;33.53;30.57;;;;;;;18.04;93.06;101849.97;5035291;28;20460;-44
2022/05/19 01:08:46;;;;;;;38.50;35.20;;;;;;;17.98;92.85;101853.56;5035156;28;20829;-49
2022/05/19 01:11:15;;;;;;;36.30;33.10;;;;;;;17.90;93.04;101855.69;5034424;28;20456;-50
2022/05/19 01:13:44;;;;;;;33.73;30.70;;;;;;;17.87;93.31;101858.81;5034991;28;20443;-48
2022/05/19 01:16:12;;;;;;;39.67;35.87;;;;;;;17.81;93.44;101862.41;5035039;28;20483;-47
2022/05/19 01:18:43;;;;;;;40.20;36.33;;;;;;;17.75;93.63;101864.09;5035042;28;20439;-44
2022/05/19 01:21:13;;;;;;;43.13;38.80;;;;;;;17.70;93.81;101863.91;5034328;28;20468;-44
2022/05/19 01:23:53;;;;;;;41.43;37.77;;;;;;;17.65;94.06;101861.84;5034804;28;20431;-46
2022/05/19 01:26:26;;;;;;;46.40;42.00;;;;;;;17.60;94.30;101863.56;5034994;28;20459;-47
2022/05/19 01:28:58;;;;;;;48.77;44.10;;;;;;;17.54;94.58;101862.53;5034693;28;20984;-46
2022/05/19 01:31:31;;;;;;;47.43;43.00;;;;;;;17.47;94.85;101864.41;5034158;28;20471;-51
2022/05/19 01:34:00;;;;;;;45.03;40.90;;;;;;;17.43;95.10;101865.91;5034659;28;20423;-45
2022/05/19 01:36:27;;;;;;;49.93;45.27;;;;;;;17.40;94.83;101870.88;5034743;28;20554;-45
2022/05/19 01:39:00;;;;;;;47.90;43.40;;;;;;;17.37;95.34;101868.63;5034804;28;20458;-45
2022/05/19 01:41:34;;;;;;;48.80;44.20;;;;;;;17.34;95.18;101872.56;5033904;28;20456;-47
2022/05/19 01:44:18;;;;;;;49.67;44.40;;;;;;;17.30;95.39;101863.25;5034521;28;20906;-44
2022/05/19 01:46:50;;;;;;;47.60;42.97;;;;;;;17.28;95.40;101869.91;5034380;28;20467;-44
2022/05/19 01:49:25;;;;;;;50.13;45.40;;;;;;;17.23;95.42;101865.16;5033590;28;20432;-48
2022/05/19 01:51:58;;;;;;;55.77;50.30;;;;;;;17.19;95.40;101872.00;5034228;28;20450;-49
2022/05/19 01:54:34;;;;;;;51.47;46.50;;;;;;;17.13;95.59;101867.47;5034413;28;20432;-48
2022/05/19 01:57:07;;;;;;;48.07;43.40;;;;;;;17.09;95.70;101861.66;5034188;28;20458;-45
2022/05/19 01:59:44;;;;;;;51.50;46.53;;;;;;;17.04;95.70;101861.47;5033918;28;20467;-44
2022/05/19 02:02:16;;;;;;;47.50;42.73;;;;;;;17.00;95.82;101868.31;5034128;28;20424;-44
2022/05/19 02:04:53;;;;;;;51.20;45.87;;;;;;;16.95;96.01;101865.44;5034322;28;20490;-44
2022/05/19 02:07:22;;;;;;;46.40;42.00;;;;;;;16.90;96.00;101867.94;5033860;28;20479;-46
2022/05/19 02:09:55;;;;;;;51.40;46.30;;;;;;;16.85;95.99;101870.44;5033801;28;20845;-46
2022/05/19 02:12:25;;;;;;;51.80;46.70;;;;;;;16.82;96.09;101868.16;5033835;28;20964;-44
2022/05/19 02:14:58;;;;;;;51.70;46.57;;;;;;;16.78;96.18;101866.09;5033910;28;20443;-43
2022/05/19 02:17:29;;;;;;;56.00;50.63;;;;;;;16.72;96.29;101877.72;5030567;28;21018;-46
2022/05/19 02:20:03;;;;;;;47.20;43.00;;;;;;;16.70;96.32;101867.13;5030180;28;20470;-44
2022/05/19 02:22:35;;;;;;;46.77;42.37;;;;;;;16.67;96.33;101875.63;5042050;28;20435;-44
2022/05/19 02:25:11;;;;;;;55.30;50.30;;;;;;;16.66;96.44;101870.47;5053628;28;20463;-45
2022/05/19 02:27:43;;;;;;;48.60;44.20;;;;;;;16.64;96.56;101867.13;5053575;28;20844;-44
2022/05/19 02:30:16;;;;;;;53.17;48.20;;;;;;;16.63;96.57;101873.59;5052577;28;20467;-46
2022/05/19 02:32:43;;;;;;;52.33;47.33;;;;;;;16.63;96.61;101868.19;5053553;28;20424;-43
2022/05/19 02:35:13;;;;;;;55.07;49.37;;;;;;;16.63;96.53;101870.88;5053663;28;20438;-48
2022/05/19 02:37:41;;;;;;;54.80;48.93;;;;;;;16.62;96.62;101872.75;5053335;28;20968;-44
2022/05/19 02:40:10;;;;;;;62.73;56.20;;;;;;;16.60;96.64;101866.75;5053043;28;20467;-47
2022/05/19 02:42:38;;;;;;;60.40;54.57;;;;;;;16.60;96.74;101872.13;5053253;28;20956;-44
2022/05/19 02:45:07;;;;;;;59.87;53.80;;;;;;;16.62;96.71;101874.59;5053485;28;20482;-45
2022/05/19 02:47:36;;;;;;;64.77;58.20;;;;;;;16.58;96.74;101872.34;5052995;28;20482;-44
2022/05/19 02:50:05;;;;;;;69.47;62.33;;;;;;;16.58;96.71;101871.50;5052719;28;20459;-44
2022/05/19 02:52:33;;;;;;;56.67;51.07;;;;;;;16.56;96.66;101877.09;5053029;28;20435;-44
2022/05/19 02:55:01;;;;;;;66.30;59.27;;;;;;;16.57;96.99;101856.41;5053161;28;20435;-44
2022/05/19 02:57:29;;;;;;;65.90;58.93;;;;;;;16.54;96.78;101848.72;5052929;28;20786;-46
2022/05/19 02:59:56;;;;;;;81.07;72.07;;;;;;;16.51;97.02;101855.34;5052632;28;20466;-48
2022/05/19 03:02:24;;;;;;;63.47;56.63;;;;;;;16.51;96.80;101857.19;5052557;28;20427;-44
2022/05/19 03:04:53;;;;;;;63.83;57.60;;;;;;;16.47;96.86;101870.25;5052939;28;20952;-44
2022/05/19 03:07:21;;;;;;;73.33;65.30;;;;;;;16.43;96.97;101865.47;5052866;28;20448;-44
2022/05/19 03:09:48;;;;;;;67.17;60.27;;;;;;;16.39;96.91;101865.06;5052195;28;20856;-46
2022/05/19 03:12:16;;;;;;;68.67;61.17;;;;;;;16.35;96.84;101866.53;5052801;28;20774;-44
2022/05/19 03:14:44;;;;;;;65.00;58.37;;;;;;;16.32;96.94;101864.25;5052856;28;20457;-44
2022/05/19 03:17:12;;;;;;;68.00;60.73;;;;;;;16.31;96.98;101853.66;5052575;28;20459;-45
2022/05/19 03:19:40;;;;;;;72.40;64.67;;;;;;;16.29;96.87;101859.28;5052272;28;20459;-49
2022/05/19 03:22:09;;;;;;;80.97;69.17;;;;;;;16.28;96.94;101864.84;5052315;28;20439;-50
2022/05/19 03:24:37;;;;;;;83.93;71.67;;;;;;;16.27;96.90;101863.22;5052754;28;20443;-44
2022/05/19 03:27:05;;;;;;;78.30;68.90;;;;;;;16.26;96.92;101864.22;5052633;28;20451;-47
2022/05/19 03:29:33;;;;;;;71.33;63.80;;;;;;;16.25;96.91;101863.41;5052129;28;20799;-44
2022/05/19 03:32:00;;;;;;;82.20;73.17;;;;;;;16.25;96.95;101860.69;5052273;28;20431;-47
2022/05/19 03:34:28;;;;;;;72.43;64.67;;;;;;;16.26;96.89;101861.53;5052409;28;20431;-47
2022/05/19 03:36:56;;;;;;;73.70;65.80;;;;;;;16.27;96.92;101865.91;5052158;28;20466;-47
2022/05/19 03:39:25;;;;;;;67.33;59.97;;;;;;;16.27;97.07;101857.81;5051970;28;20434;-45
2022/05/19 03:41:52;;;;;;;67.70;60.50;;;;;;;16.29;96.96;101858.44;5052136;28;20435;-48
2022/05/19 03:44:20;;;;;;;66.67;59.73;;;;;;;16.31;97.04;101856.34;5052237;28;20427;-49
2022/05/19 03:46:48;;;;;;;74.17;66.10;;;;;;;16.32;97.14;101855.34;5052005;28;20585;-47
2022/05/19 03:49:15;;;;;;;72.33;64.57;;;;;;;16.35;97.08;101860.31;5051539;28;20475;-45
2022/05/19 03:51:43;;;;;;;75.27;67.13;;;;;;;16.36;97.08;101862.81;5052069;28;20518;-47
2022/05/19 03:54:11;;;;;;;68.53;61.43;;;;;;;16.39;97.13;101864.25;5052049;28;20442;-44
2022/05/19 03:56:41;;;;;;;64.10;57.53;;;;;;;16.43;97.12;101855.53;5052038;28;20452;-45
2022/05/19 03:59:09;;;;;;;70.33;62.33;;;;;;;16.46;97.13;101849.72;5051554;28;20951;-47
2022/05/19 04:01:36;;;;;;;69.23;62.03;;;;;;;16.50;97.16;101850.16;5051746;28;20435;-46
2022/05/19 04:04:04;;;;;;;79.67;70.93;;;;;;;16.55;97.22;101858.44;5051796;28;21009;-49
2022/05/19 04:06:32;;;;;;;62.30;55.50;;;;;;;16.63;97.07;101849.34;5051980;28;20451;-49
2022/05/19 04:09:00;;;;;;;77.77;66.13;;;;;;;16.73;97.09;101850.56;5051756;28;20977;-47
2022/05/19 04:11:27;;;;;;;59.57;53.60;;;;;;;16.88;97.12;101859.22;5051026;28;20470;-45
2022/05/19 04:13:56;;;;;;;74.03;63.37;;;;;;;17.05;97.20;101863.13;5051760;28;20801;-49
2022/05/19 04:16:24;;;;;;;77.23;68.87;;;;;;;17.22;97.08;101862.66;5051635;28;20447;-52
2022/05/19 04:18:52;;;;;;;71.43;63.57;;;;;;;17.40;97.06;101865.50;5051998;28;20824;-47
2022/05/19 04:21:20;;;;;;;76.97;68.93;;;;;;;17.58;96.92;101861.09;5051022;28;21003;-49
2022/05/19 04:23:48;;;;;;;72.37;64.87;;;;;;;17.77;96.77;101859.28;5051650;28;20427;-44
2022/05/19 04:26:16;;;;;;;58.47;52.20;;;;;;;17.95;96.61;101856.69;5051506;28;20459;-46
2022/05/19 04:28:43;;;;;;;64.27;57.50;;;;;;;18.13;96.32;101851.38;5051609;28;20479;-47
2022/05/19 04:31:12;;;;;;;59.27;53.23;;;;;;;18.24;94.87;101852.56;5050856;28;20462;-45
2022/05/19 04:33:40;;;;;;;66.97;59.77;;;;;;;18.37;94.30;101860.53;5051850;28;20458;-45
2022/05/19 04:36:08;;;;;;;66.10;59.33;;;;;;;18.49;93.75;101853.38;5051590;28;20458;-49
2022/05/19 04:38:35;;;;;;;70.73;63.43;;;;;;;18.58;93.41;101862.03;5051567;28;20435;-45
2022/05/19 04:41:05;;;;;;;61.60;55.50;;;;;;;18.59;92.46;101855.59;5050708;28;20473;-45
2022/05/19 04:43:33;;;;;;;59.53;53.23;;;;;;;18.64;92.32;101853.88;5051416;28;20423;-46
2022/05/19 04:46:01;;;;;;;57.17;50.67;;;;;;;18.67;92.09;101850.72;5051417;28;20477;-46
2022/05/19 04:48:30;;;;;;;60.00;53.90;;;;;;;18.72;91.67;101853.59;5051288;28;20435;-47
2022/05/19 04:50:59;;;;;;;68.20;61.23;;;;;;;18.72;90.50;101858.19;5050706;28;20469;-47
2022/05/19 04:53:27;;;;;;;59.30;53.50;;;;;;;18.79;91.00;101846.22;5051456;28;20427;-48
2022/05/19 04:55:55;;;;;;;64.60;58.30;;;;;;;18.84;90.81;101844.75;5051177;28;20793;-47
2022/05/19 04:58:23;;;;;;;73.37;65.97;;;;;;;18.83;89.61;101848.50;5051326;28;20430;-45
2022/05/19 05:00:52;;;;;;;60.30;54.00;;;;;;;18.91;90.67;101851.72;5050713;28;20490;-47
2022/05/19 05:03:21;;;;;;;62.50;56.30;;;;;;;19.03;90.71;101852.63;5051205;28;20429;-49
2022/05/19 05:05:50;;;;;;;51.47;46.57;;;;;;;19.15;90.56;101840.00;5051298;28;20534;-49
2022/05/19 05:08:18;;;;;;;63.37;57.00;;;;;;;19.27;90.08;101851.72;5051301;28;20427;-49
2022/05/19 05:10:45;;;;;;;55.73;50.07;;;;;;;19.47;90.54;101856.09;5050340;28;20984;-45
2022/05/19 05:13:15;;;;;;;61.67;55.27;;;;;;;19.58;89.87;101852.59;5051356;28;20434;-47
2022/05/19 05:15:43;;;;;;;62.73;56.43;;;;;;;19.74;86.48;101857.38;5051210;28;20455;-50
2022/05/19 05:18:11;;;;;;;61.57;55.67;;;;;;;19.90;86.98;101862.13;5051201;28;20839;-47
2022/05/19 05:20:42;;;;;;;57.70;52.10;;;;;;;20.00;85.43;101864.28;5050513;28;20829;-47
2022/05/19 05:23:11;;;;;;;60.80;54.60;;;;;;;20.09;85.63;101861.00;5050993;28;20431;-47
2022/05/19 05:25:39;;;;;;;55.70;50.30;;;;;;;20.24;85.16;101861.41;5053561;28;20813;-46
2022/05/19 05:28:08;;;;;;;61.93;54.90;;;;;;;20.44;84.67;101858.38;5054877;28;20430;-47
2022/05/19 05:30:36;;;;;;;64.30;57.97;;;;;;;20.62;83.96;101852.84;5054033;28;20470;-45
2022/05/19 05:33:05;;;;;;;61.40;54.90;;;;;;;20.93;83.43;101846.22;5054696;28;20422;-46
2022/05/19 05:35:33;;;;;;;67.17;60.63;;;;;;;20.93;80.59;101846.22;5054387;28;20781;-45
2022/05/19 05:38:01;;;;;;;62.90;56.03;;;;;;;21.04;80.53;101836.41;5054703;28;20435;-47
2022/05/19 05:40:30;;;;;;;64.87;58.67;;;;;;;21.17;78.66;101837.00;5053955;28;20462;-45
2022/05/19 05:43:06;;;;;;;65.73;58.67;;;;;;;21.53;79.73;101825.78;5054596;28;20426;-49
2022/05/19 05:45:33;;;;;;;63.70;57.27;;;;;;;21.53;75.96;101830.41;5054344;28;20982;-47
2022/05/19 05:48:01;;;;;;;60.23;53.87;;;;;;;21.49;75.28;101824.63;5054394;28;20433;-45
2022/05/19 05:50:29;;;;;;;55.10;49.80;;;;;;;21.53;75.66;101820.34;5053541;28;20470;-48
2022/05/19 05:52:57;;;;;;;53.70;48.60;;;;;;;21.58;75.26;101829.66;5054528;28;20431;-45
2022/05/19 05:55:24;;;;;;;62.97;56.63;;;;;;;21.57;74.98;101834.25;5054245;28;20431;-47
2022/05/19 05:57:53;;;;;;;62.27;55.80;;;;;;;21.61;75.28;101832.72;5054270;28;20436;-45
2022/05/19 06:00:21;;;;;;;61.70;55.77;;;;;;;21.53;74.31;101830.41;5053471;28;20462;-44
2022/05/19 06:02:49;;;;;;;57.30;51.73;;;;;;;21.51;74.93;101836.06;5054003;28;20427;-47
2022/05/19 06:05:18;;;;;;;57.07;51.33;;;;;;;21.52;74.66;101836.88;5054205;28;20439;-47
2022/05/19 06:07:46;;;;;;;53.37;47.83;;;;;;;21.92;75.44;101834.94;5054226;28;20427;-45
2022/05/19 06:10:14;;;;;;;62.40;55.60;;;;;;;21.67;72.91;101829.03;5053236;28;20477;-46
2022/05/19 06:12:42;;;;;;;54.70;48.67;;;;;;;22.05;74.72;101817.50;5054052;28;20461;-46
2022/05/19 06:15:14;;;;;;;45.43;41.13;;;;;;;23.23;77.30;101825.22;5053728;28;20431;-52
2022/05/19 06:17:42;;;;;;;63.63;57.13;;;;;;;22.91;70.43;101819.63;5053859;28;20429;-48
2022/05/19 06:20:13;;;;;;;53.13;48.00;;;;;;;22.85;68.99;101817.13;5053244;28;20467;-46
2022/05/19 06:22:42;;;;;;;52.40;47.53;;;;;;;23.50;69.94;101819.81;5053820;28;20431;-44
2022/05/19 06:25:11;;;;;;;45.37;40.93;;;;;;;23.93;71.07;101818.88;5053686;28;20423;-48
2022/05/19 06:27:39;;;;;;;58.93;53.77;;;;;;;25.02;68.53;101811.75;5053516;28;20447;-48
2022/05/19 06:30:08;;;;;;;51.20;46.70;;;;;;;25.68;66.03;101815.53;5052985;28;21021;-45
2022/05/19 06:32:37;;;;;;;56.47;51.10;;;;;;;25.66;61.84;101819.59;5053731;28;20457;-45
2022/05/19 06:35:06;;;;;;;61.10;55.60;;;;;;;25.23;60.21;101813.47;5053656;28;20439;-43
2022/05/19 06:37:34;;;;;;;51.10;46.27;;;;;;;24.87;60.35;101816.31;5052189;28;20996;-46
2022/05/19 06:40:02;;;;;;;60.57;55.13;;;;;;;24.49;60.70;101812.78;5052725;28;20824;-45
2022/05/19 06:42:30;;;;;;;54.40;49.43;;;;;;;24.02;61.56;101807.25;5053131;28;20438;-45
2022/05/19 06:44:57;;;;;;;58.20;52.20;;;;;;;23.31;62.78;101802.16;5053579;28;20438;-46
2022/05/19 06:47:25;;;;;;;57.40;52.00;;;;;;;22.88;65.24;101792.94;5053186;28;20459;-47
2022/05/19 06:49:55;;;;;;;60.80;55.20;;;;;;;22.70;67.03;101789.72;5052740;28;20482;-45
2022/05/19 06:52:25;;;;;;;56.43;51.40;;;;;;;22.58;67.52;101795.19;5053054;28;20508;-46
2022/05/19 06:54:55;;;;;;;60.43;54.33;;;;;;;22.63;67.91;101791.75;5053091;28;20529;-44
2022/05/19 06:57:24;;;;;;;54.73;49.50;;;;;;;23.55;70.59;101796.19;5053180;28;20450;-42
2022/05/19 06:59:53;;;;;;;51.57;47.00;;;;;;;24.37;62.95;101795.78;5052771;28;20466;-45
2022/05/19 07:02:22;;;;;;;46.90;42.60;;;;;;;25.31;62.91;101791.09;5052879;28;20431;-46
2022/05/19 07:04:50;;;;;;;50.07;45.33;;;;;;;25.36;60.33;101784.81;5053045;28;20826;-43
2022/05/19 07:07:19;;;;;;;49.13;44.70;;;;;;;25.64;58.88;101776.16;5052690;28;20462;-44
2022/05/19 07:09:47;;;;;;;47.20;42.97;;;;;;;25.84;57.87;101778.06;5052498;28;20493;-42
2022/05/19 07:12:21;;;;;;;44.00;39.97;;;;;;;26.49;55.19;101776.41;5052746;28;20770;-43
2022/05/19 07:14:49;;;;;;;44.57;40.43;;;;;;;26.74;56.21;101771.66;5053017;28;20797;-43
2022/05/19 07:17:17;;;;;;;41.17;37.73;;;;;;;27.26;52.72;101768.44;5052693;28;20482;-43
2022/05/19 07:22:34;;;;;;;41.03;37.60;;;;;;;26.85;53.87;101767.81;5052366;28;20978;-45
2022/05/19 07:25:03;;;;;;;45.57;41.30;;;;;;;26.62;54.58;101773.06;5052606;28;20969;-43
2022/05/19 07:27:31;;;;;;;42.10;38.40;;;;;;;25.98;55.88;101759.22;5052570;28;20451;-43
2022/05/19 07:29:59;;;;;;;43.33;39.40;;;;;;;25.80;56.07;101760.59;5052031;28;20458;-43
2022/05/19 07:32:27;;;;;;;32.13;29.37;;;;;;;25.62;56.12;101756.50;5052098;28;20447;-42
2022/05/19 07:34:56;;;;;;;31.37;28.60;;;;;;;25.62;56.91;101750.22;5052581;28;20431;-44
2022/05/19 07:37:24;;;;;;;25.80;23.73;;;;;;;26.01;56.27;101759.50;5052237;28;20461;-43
2022/05/19 07:39:54;;;;;;;24.93;22.73;;;;;;;26.17;55.55;101758.41;5051845;28;20463;-42
2022/05/19 07:42:22;;;;;;;22.50;20.70;;;;;;;26.14;56.29;101753.47;5052186;28;20434;-45
2022/05/19 07:44:50;;;;;;;23.30;21.23;;;;;;;26.87;54.89;101743.75;5052182;28;20438;-43
2022/05/19 07:47:19;;;;;;;24.20;22.20;;;;;;;26.87;55.23;101746.47;5051681;28;20474;-43
2022/05/19 07:49:47;;;;;;;22.73;20.80;;;;;;;27.11;54.55;101745.81;5051708;28;21013;-43
2022/05/19 07:52:14;;;;;;;23.47;21.57;;;;;;;27.61;54.09;101750.97;5051926;28;20471;-43
2022/05/19 07:54:42;;;;;;;22.87;20.90;;;;;;;27.51;53.08;101745.56;5052087;28;20521;-42
2022/05/19 07:57:11;;;;;;;23.40;21.50;;;;;;;27.30;53.03;101749.53;5051906;28;20450;-44
2022/05/19 07:59:39;;;;;;;23.37;21.47;;;;;;;27.22;53.70;101750.09;5051730;28;20458;-43
2022/05/19 08:02:07;;;;;;;21.23;19.77;;;;;;;27.49;53.22;101750.50;5051944;28;20438;-43
2022/05/19 08:04:35;;;;;;;21.90;20.10;;;;;;;27.85;52.63;101751.88;5052111;28;20441;-43
2022/05/19 08:07:03;;;;;;;22.97;20.80;;;;;;;28.12;51.84;101756.03;5051896;28;20890;-49
2022/05/19 08:15:34;;;;;;;20.27;18.67;;;;;;;28.55;51.85;101760.53;5051476;28;20470;-49
2022/05/19 08:17:54;;;;;;;16.43;15.23;;;;;;;28.41;51.51;101763.13;5051642;28;20954;-43
2022/05/19 08:20:22;;;;;;;18.83;17.40;;;;;;;28.27;51.25;101762.19;5051031;28;20472;-49
2022/05/19 08:22:49;;;;;;;25.90;23.60;;;;;;;28.11;50.80;101766.19;5052017;28;20517;-47
2022/05/19 08:25:17;;;;;;;28.03;25.63;;;;;;;27.96;51.74;101767.13;5051724;28;20441;-45
2022/05/19 08:27:47;;;;;;;26.53;24.20;;;;;;;27.84;50.59;101774.91;5051754;28;20951;-45
2022/05/19 08:30:15;;;;;;;27.50;25.30;;;;;;;27.01;51.40;101773.22;5051158;28;20490;-48
2022/05/19 08:32:42;;;;;;;23.87;21.77;;;;;;;27.20;53.00;101779.72;5051370;28;20521;-50
2022/05/19 08:35:10;;;;;;;22.90;21.10;;;;;;;28.00;52.93;101776.41;5051608;28;20924;-48
2022/05/19 08:37:38;;;;;;;23.73;21.63;;;;;;;28.61;52.05;101780.50;5051516;28;20447;-48
2022/05/19 08:40:07;;;;;;;20.77;18.83;;;;;;;29.30;50.36;101788.19;5051097;28;20471;-46
2022/05/19 08:42:40;;;;;;;13.70;12.50;;;;;;;29.08;46.38;101775.81;5051482;28;20920;-50
2022/05/19 08:45:18;;;;;;;13.93;12.80;;;;;;;29.11;45.41;101779.88;5051412;28;20442;-48
2022/05/19 08:47:49;;;;;;;13.90;12.63;;;;;;;28.82;46.24;101779.19;5051435;28;20943;-49
2022/05/19 08:50:28;;;;;;;10.90;10.10;;;;;;;28.91;46.32;101775.47;5050853;28;20471;-48
2022/05/19 08:52:56;;;;;;;15.57;14.20;;;;;;;28.85;47.32;101770.34;5051301;28;20474;-44
2022/05/19 08:55:24;;;;;;;12.70;11.83;;;;;;;29.38;46.24;101771.84;5051338;28;20441;-51
2022/05/19 08:58:03;;;;;;;14.50;13.40;;;;;;;29.53;44.82;101774.34;5051316;28;20466;-46
2022/05/19 09:00:38;;;;;;;13.63;12.23;;;;;;;29.66;45.55;101769.22;5053108;28;20464;-49
2022/05/19 09:03:16;;;;;;;14.87;13.37;;;;;;;29.67;46.43;101766.16;5055488;28;20429;-48
2022/05/19 09:06:10;;;;;;;13.43;12.50;;;;;;;29.88;45.34;101759.22;5055244;28;20458;-50
2022/05/19 09:08:50;;;;;;;15.00;13.70;;;;;;;29.78;44.63;101764.88;5055445;28;20430;-48
2022/05/19 09:11:20;;;;;;;16.93;15.73;;;;;;;29.52;45.00;101758.16;5054476;28;20480;-50
2022/05/19 09:13:54;;;;;;;15.67;14.30;;;;;;;29.44;45.52;101756.91;5055232;28;20434;-46
2022/05/19 09:16:25;;;;;;;12.57;11.47;;;;;;;29.67;46.00;101748.84;5054984;28;20465;-49
2022/05/19 09:18:58;;;;;;;14.93;13.70;;;;;;;29.79;45.33;101743.69;5055064;28;20438;-48
2022/05/19 09:21:26;;;;;;;18.77;17.13;;;;;;;29.43;44.34;101741.53;5054325;28;20462;-51
2022/05/19 09:23:53;;;;;;;17.43;15.87;;;;;;;29.41;46.16;101749.25;5055065;28;20426;-45
2022/05/19 09:26:40;;;;;;;14.97;13.47;;;;;;;29.53;45.30;101752.38;5055141;28;20816;-46
2022/05/19 09:29:11;;;;;;;15.73;14.50;;;;;;;29.42;45.26;101747.34;5054391;28;20433;-49
2022/05/19 09:31:43;;;;;;;15.43;14.00;;;;;;;29.59;46.13;101759.41;5054600;28;20470;-46
2022/05/19 09:34:11;;;;;;;17.10;15.67;;;;;;;29.57;45.33;101753.38;5054817;28;20434;-47
2022/05/19 09:36:53;;;;;;;16.90;15.37;;;;;;;29.71;45.05;101756.19;5054597;28;20454;-48
2022/05/19 09:39:21;;;;;;;15.33;13.80;;;;;;;29.62;44.78;101752.50;5054174;28;20433;-51
2022/05/19 09:41:54;;;;;;;16.10;14.77;;;;;;;29.76;45.65;101753.34;5054592;28;20427;-45
2022/05/19 09:44:29;;;;;;;16.93;15.43;;;;;;;29.95;45.01;101750.59;5054524;28;20433;-49
2022/05/19 09:46:58;;;;;;;16.90;15.63;;;;;;;29.83;44.30;101748.34;5054332;28;20461;-49
2022/05/19 09:49:30;;;;;;;16.23;14.93;;;;;;;29.88;43.57;101756.50;5054013;28;20457;-45
2022/05/19 09:52:03;;;;;;;17.40;16.07;;;;;;;29.21;42.93;101754.22;5054011;28;20471;-48
2022/05/19 09:54:32;;;;;;;16.53;15.33;;;;;;;29.08;44.74;101750.25;5054507;28;20426;-44
2022/05/19 09:57:05;;;;;;;22.90;17.80;;;;;;;29.01;44.39;101749.81;5054375;28;20451;-49
2022/05/19 09:59:37;;;;;;;16.63;15.40;;;;;;;28.93;45.52;101748.53;5053895;28;20510;-49
2022/05/19 10:02:16;;;;;;;18.83;17.27;;;;;;;29.16;45.46;101754.25;5054537;28;20938;-51
2022/05/19 10:04:50;;;;;;;14.70;13.40;;;;;;;29.29;46.34;101751.63;5054915;28;21019;-47
2022/05/19 10:07:23;;;;;;;21.50;19.60;;;;;;;28.99;44.71;101746.53;5054047;28;20857;-46
2022/05/19 10:09:52;;;;;;;17.70;16.00;;;;;;;29.10;45.13;101735.13;5053744;28;20528;-48
2022/05/19 10:12:22;;;;;;;18.87;17.30;;;;;;;29.09;45.83;101733.47;5053572;28;20474;-49
2022/05/19 10:14:57;;;;;;;18.20;16.43;;;;;;;29.35;46.66;101735.88;5053923;28;20947;-47
2022/05/19 10:17:40;;;;;;;17.50;16.10;;;;;;;29.69;44.70;101735.63;5054105;28;20469;-49
2022/05/19 10:20:17;;;;;;;19.13;17.53;;;;;;;29.69;44.74;101730.91;5053547;28;20461;-48
2022/05/19 10:23:16;;;;;;;20.47;18.83;;;;;;;29.59;44.78;101733.88;5053757;28;20987;-52
2022/05/19 10:25:58;;;;;;;21.33;19.63;;;;;;;29.34;44.77;101734.25;5053759;28;20978;-46
2022/05/19 10:31:39;;;;;;;19.63;17.73;;;;;;;28.91;46.01;101722.50;5085157;22;20486;-49
2022/05/19 10:34:33;;;;;;;21.10;19.30;;;;;;;28.74;46.90;101722.16;5073686;28;20421;-50
2022/05/19 10:37:07;;;;;;;18.73;17.20;;;;;;;28.58;45.94;101727.00;5073545;28;20430;-50
2022/05/19 10:39:50;;;;;;;21.70;19.93;;;;;;;28.64;45.84;101714.03;5073084;28;20460;-49
2022/05/19 10:42:25;;;;;;;20.33;18.40;;;;;;;28.76;46.50;101731.75;5073440;28;20803;-53
2022/05/19 10:45:07;;;;;;;23.27;21.07;;;;;;;28.26;47.06;101726.81;5073560;28;20437;-52
2022/05/19 10:47:47;;;;;;;20.20;18.57;;;;;;;28.35;48.19;101720.41;5073202;28;20914;-50
2022/05/19 10:50:25;;;;;;;21.27;19.43;;;;;;;28.38;48.66;101721.75;5072508;28;20472;-52
2022/05/19 10:53:12;;;;;;;24.67;22.77;;;;;;;28.20;48.19;101712.34;5073432;28;20500;-48
2022/05/19 10:55:51;;;;;;;21.07;19.40;;;;;;;28.03;48.80;101710.03;5073357;28;20441;-53
2022/05/19 10:58:36;;;;;;;20.27;18.30;;;;;;;28.56;46.22;101704.50;5073180;28;20426;-51
2022/05/19 11:01:15;;;;;;;20.07;18.57;;;;;;;28.36;48.45;101708.34;5072410;28;20465;-47
2022/05/19 11:03:57;;;;;;;21.70;19.67;;;;;;;28.44;46.54;101706.84;5073109;28;20444;-49
2022/05/19 11:06:49;;;;;;;21.10;19.20;;;;;;;28.49;45.85;101707.59;5072954;28;20529;-50
2022/05/19 11:09:32;;;;;;;21.40;19.50;;;;;;;28.74;46.99;101711.19;5072634;28;20426;-47
2022/05/19 11:12:10;;;;;;;21.33;19.73;;;;;;;28.92;45.58;101707.63;5072529;28;20469;-49
2022/05/19 11:14:54;;;;;;;22.80;20.90;;;;;;;28.90;45.39;101705.19;5072706;28;20794;-51
2022/05/19 11:17:33;;;;;;;21.17;19.43;;;;;;;28.30;47.40;101700.44;5072614;28;20426;-53
2022/05/19 11:20:07;;;;;;;22.63;20.60;;;;;;;27.88;47.44;101699.22;5072369;28;20461;-50
2022/05/19 11:22:39;;;;;;;23.67;21.20;;;;;;;27.98;48.44;101699.13;5071898;28;20503;-51
2022/05/19 11:28:04;;;;;;;23.17;21.27;;;;;;;28.03;49.04;101695.50;5072445;28;21035;-51
2022/05/19 11:30:38;;;;;;;25.17;22.87;;;;;;;28.00;48.08;101699.63;5071729;28;20466;-48
2022/05/19 11:33:12;;;;;;;25.47;23.23;;;;;;;27.83;48.29;101712.97;5072383;28;20473;-50
2022/05/19 11:35:43;;;;;;;22.70;20.80;;;;;;;27.71;49.60;101715.28;5072376;28;20524;-54
2022/05/19 11:38:20;;;;;;;24.70;22.60;;;;;;;27.53;52.32;101710.50;5072306;28;20437;-53
2022/05/19 11:40:53;;;;;;;21.50;19.73;;;;;;;27.10;51.83;101705.81;5071581;28;20469;-50